sensor_id;sensor_type;location;lat;lon;timestamp;P1;durP1;ratioP1;P2;durP2;ratioP2
6517;SDS011;3292;48.944;9.240;2023-05-17T00:00:55;5.20;;;2.50;;
6517;SDS011;3292;48.944;9.240;2023-05-17T00:03:22;5.47;;;2.47;;
6517;SDS011;3292;48.944;9.240;2023-05-17T00:05:49;5.30;;;2.70;;
6517;SDS011;3292;48.944;9.240;2023-05-17T00:08:18;6.10;;;2.40;;
6517;SDS011;3292;48.944;9.240;2023-05-17T00:10:45;4.97;;;2.20;;
6517;SDS011;3292;48.944;9.240;2023-05-17T00:13:12;6.63;;;2.67;;
6517;SDS011;3292;48.944;9.240;2023-05-17T00:15:38;4.57;;;2.40;;
6517;SDS011;3292;48.944;9.240;2023-05-17T00:18:05;5.40;;;2.47;;
6517;SDS011;3292;48.944;9.240;2023-05-17T00:20:32;6.50;;;2.20;;
6517;SDS011;3292;48.944;9.240;2023-05-17T00:22:59;4.47;;;2.43;;
6517;SDS011;3292;48.944;9.240;2023-05-17T00:25:28;4.77;;;2.13;;
6517;SDS011;3292;48.944;9.240;2023-05-17T00:27:55;4.63;;;2.60;;
6517;SDS011;3292;48.944;9.240;2023-05-17T00:30:21;3.87;;;2.33;;
6517;SDS011;3292;48.944;9.240;2023-05-17T00:32:48;6.90;;;2.40;;
6517;SDS011;3292;48.944;9.240;2023-05-17T00:35:15;3.67;;;2.40;;
6517;SDS011;3292;48.944;9.240;2023-05-17T00:37:42;3.23;;;2.10;;
6517;SDS011;3292;48.944;9.240;2023-05-17T00:40:12;3.97;;;2.20;;
6517;SDS011;3292;48.944;9.240;2023-05-17T00:42:41;5.10;;;2.20;;
6517;SDS011;3292;48.944;9.240;2023-05-17T00:45:08;4.47;;;2.73;;
6517;SDS011;3292;48.944;9.240;2023-05-17T00:47:35;3.20;;;2.00;;
6517;SDS011;3292;48.944;9.240;2023-05-17T00:50:02;5.43;;;2.50;;
6517;SDS011;3292;48.944;9.240;2023-05-17T00:52:30;3.80;;;2.20;;
6517;SDS011;3292;48.944;9.240;2023-05-17T00:54:57;4.10;;;2.03;;
6517;SDS011;3292;48.944;9.240;2023-05-17T00:57:24;2.70;;;2.10;;
6517;SDS011;3292;48.944;9.240;2023-05-17T00:59:52;4.33;;;2.20;;
6517;SDS011;3292;48.944;9.240;2023-05-17T01:02:20;7.37;;;2.47;;
6517;SDS011;3292;48.944;9.240;2023-05-17T01:04:47;7.10;;;2.17;;
6517;SDS011;3292;48.944;9.240;2023-05-17T01:07:14;4.17;;;2.00;;
6517;SDS011;3292;48.944;9.240;2023-05-17T01:09:42;5.10;;;2.93;;
6517;SDS011;3292;48.944;9.240;2023-05-17T01:12:10;3.60;;;2.83;;
6517;SDS011;3292;48.944;9.240;2023-05-17T01:14:46;5.53;;;3.23;;
6517;SDS011;3292;48.944;9.240;2023-05-17T01:17:21;4.70;;;2.40;;
6517;SDS011;3292;48.944;9.240;2023-05-17T01:20:03;4.10;;;2.53;;
6517;SDS011;3292;48.944;9.240;2023-05-17T01:22:38;4.27;;;2.30;;
6517;SDS011;3292;48.944;9.240;2023-05-17T01:28:01;3.17;;;2.37;;
6517;SDS011;3292;48.944;9.240;2023-05-17T01:30:29;6.40;;;2.77;;
6517;SDS011;3292;48.944;9.240;2023-05-17T01:33:01;2.97;;;2.40;;
6517;SDS011;3292;48.944;9.240;2023-05-17T01:35:29;4.00;;;2.43;;
6517;SDS011;3292;48.944;9.240;2023-05-17T01:37:56;4.23;;;2.43;;
6517;SDS011;3292;48.944;9.240;2023-05-17T01:40:22;3.53;;;2.17;;
6517;SDS011;3292;48.944;9.240;2023-05-17T01:42:52;3.00;;;1.90;;
6517;SDS011;3292;48.944;9.240;2023-05-17T01:45:25;4.87;;;2.57;;
6517;SDS011;3292;48.944;9.240;2023-05-17T01:47:59;5.00;;;2.07;;
6517;SDS011;3292;48.944;9.240;2023-05-17T01:50:35;2.73;;;2.40;;
6517;SDS011;3292;48.944;9.240;2023-05-17T01:53:06;2.97;;;2.00;;
6517;SDS011;3292;48.944;9.240;2023-05-17T01:55:38;3.87;;;2.40;;
6517;SDS011;3292;48.944;9.240;2023-05-17T01:58:09;6.37;;;2.50;;
6517;SDS011;3292;48.944;9.240;2023-05-17T02:00:39;5.40;;;2.70;;
6517;SDS011;3292;48.944;9.240;2023-05-17T02:03:10;4.00;;;2.37;;
6517;SDS011;3292;48.944;9.240;2023-05-17T02:05:38;4.77;;;2.37;;
6517;SDS011;3292;48.944;9.240;2023-05-17T02:08:05;5.10;;;2.27;;
6517;SDS011;3292;48.944;9.240;2023-05-17T02:10:31;2.93;;;2.23;;
6517;SDS011;3292;48.944;9.240;2023-05-17T02:12:58;4.93;;;2.23;;
6517;SDS011;3292;48.944;9.240;2023-05-17T02:15:25;3.50;;;2.20;;
6517;SDS011;3292;48.944;9.240;2023-05-17T02:17:53;3.13;;;2.33;;
6517;SDS011;3292;48.944;9.240;2023-05-17T02:20:20;3.87;;;2.73;;
6517;SDS011;3292;48.944;9.240;2023-05-17T02:22:47;2.90;;;2.37;;
6517;SDS011;3292;48.944;9.240;2023-05-17T02:25:14;3.87;;;2.07;;
6517;SDS011;3292;48.944;9.240;2023-05-17T02:27:41;3.23;;;2.13;;
6517;SDS011;3292;48.944;9.240;2023-05-17T02:30:08;4.03;;;2.23;;
6517;SDS011;3292;48.944;9.240;2023-05-17T02:32:37;4.60;;;2.20;;
6517;SDS011;3292;48.944;9.240;2023-05-17T02:35:06;2.63;;;2.10;;
6517;SDS011;3292;48.944;9.240;2023-05-17T02:37:33;4.83;;;2.20;;
6517;SDS011;3292;48.944;9.240;2023-05-17T02:40:00;3.03;;;2.27;;
6517;SDS011;3292;48.944;9.240;2023-05-17T02:42:28;3.67;;;2.00;;
6517;SDS011;3292;48.944;9.240;2023-05-17T02:44:55;3.87;;;2.23;;
6517;SDS011;3292;48.944;9.240;2023-05-17T02:47:22;3.80;;;2.43;;
6517;SDS011;3292;48.944;9.240;2023-05-17T02:49:48;5.27;;;2.23;;
6517;SDS011;3292;48.944;9.240;2023-05-17T02:52:17;3.87;;;2.10;;
6517;SDS011;3292;48.944;9.240;2023-05-17T02:54:43;3.33;;;2.27;;
6517;SDS011;3292;48.944;9.240;2023-05-17T02:57:11;4.00;;;2.33;;
6517;SDS011;3292;48.944;9.240;2023-05-17T02:59:38;5.67;;;2.60;;
6517;SDS011;3292;48.944;9.240;2023-05-17T03:02:05;3.17;;;2.00;;
6517;SDS011;3292;48.944;9.240;2023-05-17T03:04:32;3.87;;;2.17;;
6517;SDS011;3292;48.944;9.240;2023-05-17T03:06:58;4.13;;;2.30;;
6517;SDS011;3292;48.944;9.240;2023-05-17T03:09:27;3.73;;;2.20;;
6517;SDS011;3292;48.944;9.240;2023-05-17T03:11:54;4.43;;;2.40;;
6517;SDS011;3292;48.944;9.240;2023-05-17T03:14:21;5.13;;;2.30;;
6517;SDS011;3292;48.944;9.240;2023-05-17T03:16:48;3.23;;;2.30;;
6517;SDS011;3292;48.944;9.240;2023-05-17T03:19:15;4.33;;;2.50;;
6517;SDS011;3292;48.944;9.240;2023-05-17T03:21:41;5.00;;;2.50;;
6517;SDS011;3292;48.944;9.240;2023-05-17T03:24:08;4.63;;;2.43;;
6517;SDS011;3292;48.944;9.240;2023-05-17T03:26:36;4.10;;;2.20;;
6517;SDS011;3292;48.944;9.240;2023-05-17T03:29:03;3.90;;;2.60;;
6517;SDS011;3292;48.944;9.240;2023-05-17T03:31:30;3.33;;;2.20;;
6517;SDS011;3292;48.944;9.240;2023-05-17T03:33:57;3.70;;;2.33;;
6517;SDS011;3292;48.944;9.240;2023-05-17T03:36:24;3.63;;;2.13;;
6517;SDS011;3292;48.944;9.240;2023-05-17T03:38:50;2.50;;;2.23;;
6517;SDS011;3292;48.944;9.240;2023-05-17T03:41:17;3.53;;;2.83;;
6517;SDS011;3292;48.944;9.240;2023-05-17T03:43:45;3.80;;;2.30;;
6517;SDS011;3292;48.944;9.240;2023-05-17T03:46:12;5.63;;;2.33;;
6517;SDS011;3292;48.944;9.240;2023-05-17T03:48:39;8.47;;;2.47;;
6517;SDS011;3292;48.944;9.240;2023-05-17T03:51:06;4.07;;;2.30;;
6517;SDS011;3292;48.944;9.240;2023-05-17T03:53:33;4.73;;;2.27;;
6517;SDS011;3292;48.944;9.240;2023-05-17T03:56:05;2.77;;;2.37;;
6517;SDS011;3292;48.944;9.240;2023-05-17T03:58:32;5.17;;;2.40;;
6517;SDS011;3292;48.944;9.240;2023-05-17T04:01:00;4.83;;;2.23;;
6517;SDS011;3292;48.944;9.240;2023-05-17T04:03:27;3.57;;;2.30;;
6517;SDS011;3292;48.944;9.240;2023-05-17T04:05:57;2.80;;;2.00;;
6517;SDS011;3292;48.944;9.240;2023-05-17T04:08:26;6.67;;;2.50;;
6517;SDS011;3292;48.944;9.240;2023-05-17T04:10:53;2.97;;;2.10;;
6517;SDS011;3292;48.944;9.240;2023-05-17T04:13:20;3.77;;;2.50;;
6517;SDS011;3292;48.944;9.240;2023-05-17T04:15:47;5.07;;;2.73;;
6517;SDS011;3292;48.944;9.240;2023-05-17T04:18:15;5.90;;;2.73;;
6517;SDS011;3292;48.944;9.240;2023-05-17T04:20:41;3.10;;;2.40;;
6517;SDS011;3292;48.944;9.240;2023-05-17T04:23:08;6.83;;;2.70;;
6517;SDS011;3292;48.944;9.240;2023-05-17T04:25:35;3.70;;;2.40;;
6517;SDS011;3292;48.944;9.240;2023-05-17T04:28:02;3.63;;;2.57;;
6517;SDS011;3292;48.944;9.240;2023-05-17T04:30:29;4.20;;;2.33;;
6517;SDS011;3292;48.944;9.240;2023-05-17T04:32:56;5.77;;;2.90;;
6517;SDS011;3292;48.944;9.240;2023-05-17T04:35:25;3.57;;;2.40;;
6517;SDS011;3292;48.944;9.240;2023-05-17T04:37:52;3.90;;;2.20;;
6517;SDS011;3292;48.944;9.240;2023-05-17T04:40:18;4.57;;;2.50;;
6517;SDS011;3292;48.944;9.240;2023-05-17T04:42:45;2.60;;;2.37;;
6517;SDS011;3292;48.944;9.240;2023-05-17T04:45:12;5.27;;;2.70;;
6517;SDS011;3292;48.944;9.240;2023-05-17T04:47:40;4.03;;;2.40;;
6517;SDS011;3292;48.944;9.240;2023-05-17T04:50:07;2.80;;;2.50;;
6517;SDS011;3292;48.944;9.240;2023-05-17T04:52:36;4.30;;;2.70;;
6517;SDS011;3292;48.944;9.240;2023-05-17T04:55:03;3.40;;;2.40;;
6517;SDS011;3292;48.944;9.240;2023-05-17T04:57:30;4.00;;;2.40;;
6517;SDS011;3292;48.944;9.240;2023-05-17T04:59:57;5.63;;;2.80;;
6517;SDS011;3292;48.944;9.240;2023-05-17T05:02:24;5.73;;;3.20;;
6517;SDS011;3292;48.944;9.240;2023-05-17T05:04:50;6.50;;;2.50;;
6517;SDS011;3292;48.944;9.240;2023-05-17T05:07:17;5.00;;;2.60;;
6517;SDS011;3292;48.944;9.240;2023-05-17T05:09:45;4.27;;;2.40;;
6517;SDS011;3292;48.944;9.240;2023-05-17T05:12:12;5.40;;;2.77;;
6517;SDS011;3292;48.944;9.240;2023-05-17T05:14:39;4.43;;;2.60;;
6517;SDS011;3292;48.944;9.240;2023-05-17T05:17:06;4.07;;;2.50;;
6517;SDS011;3292;48.944;9.240;2023-05-17T05:19:33;5.23;;;3.00;;
6517;SDS011;3292;48.944;9.240;2023-05-17T05:21:59;3.70;;;2.60;;
6517;SDS011;3292;48.944;9.240;2023-05-17T05:24:26;4.63;;;2.70;;
6517;SDS011;3292;48.944;9.240;2023-05-17T05:26:54;4.10;;;2.67;;
6517;SDS011;3292;48.944;9.240;2023-05-17T05:29:21;6.20;;;2.30;;
6517;SDS011;3292;48.944;9.240;2023-05-17T05:31:48;5.90;;;2.70;;
6517;SDS011;3292;48.944;9.240;2023-05-17T05:34:15;3.00;;;2.47;;
6517;SDS011;3292;48.944;9.240;2023-05-17T05:36:42;5.37;;;2.90;;
6517;SDS011;3292;48.944;9.240;2023-05-17T05:39:09;6.33;;;2.70;;
6517;SDS011;3292;48.944;9.240;2023-05-17T05:41:36;3.63;;;2.70;;
6517;SDS011;3292;48.944;9.240;2023-05-17T05:44:04;8.17;;;3.50;;
6517;SDS011;3292;48.944;9.240;2023-05-17T05:46:31;7.83;;;2.80;;
6517;SDS011;3292;48.944;9.240;2023-05-17T05:48:58;12.70;;;3.10;;
6517;SDS011;3292;48.944;9.240;2023-05-17T05:51:25;7.13;;;2.83;;
6517;SDS011;3292;48.944;9.240;2023-05-17T05:53:52;8.83;;;3.47;;
6517;SDS011;3292;48.944;9.240;2023-05-17T05:56:18;4.37;;;2.73;;
6517;SDS011;3292;48.944;9.240;2023-05-17T05:58:45;6.17;;;3.07;;
6517;SDS011;3292;48.944;9.240;2023-05-17T06:01:13;5.00;;;2.60;;
6517;SDS011;3292;48.944;9.240;2023-05-17T06:03:40;4.57;;;2.63;;
6517;SDS011;3292;48.944;9.240;2023-05-17T06:06:07;5.63;;;2.50;;
6517;SDS011;3292;48.944;9.240;2023-05-17T06:08:34;4.83;;;2.37;;
6517;SDS011;3292;48.944;9.240;2023-05-17T06:11:01;4.40;;;2.57;;
6517;SDS011;3292;48.944;9.240;2023-05-17T06:13:27;6.40;;;2.70;;
6517;SDS011;3292;48.944;9.240;2023-05-17T06:15:54;4.37;;;2.70;;
6517;SDS011;3292;48.944;9.240;2023-05-17T06:18:23;7.73;;;3.40;;
6517;SDS011;3292;48.944;9.240;2023-05-17T06:20:49;5.67;;;3.10;;
6517;SDS011;3292;48.944;9.240;2023-05-17T06:23:16;9.60;;;2.60;;
6517;SDS011;3292;48.944;9.240;2023-05-17T06:25:43;7.17;;;2.90;;
6517;SDS011;3292;48.944;9.240;2023-05-17T06:28:10;6.20;;;2.80;;
6517;SDS011;3292;48.944;9.240;2023-05-17T06:30:36;6.97;;;2.97;;
6517;SDS011;3292;48.944;9.240;2023-05-17T06:33:03;5.57;;;2.70;;
6517;SDS011;3292;48.944;9.240;2023-05-17T06:35:31;3.87;;;2.50;;
6517;SDS011;3292;48.944;9.240;2023-05-17T06:37:58;3.87;;;2.87;;
6517;SDS011;3292;48.944;9.240;2023-05-17T06:40:25;6.93;;;2.87;;
6517;SDS011;3292;48.944;9.240;2023-05-17T06:42:52;5.07;;;2.50;;
6517;SDS011;3292;48.944;9.240;2023-05-17T06:45:19;6.07;;;2.70;;
6517;SDS011;3292;48.944;9.240;2023-05-17T06:47:45;6.70;;;2.87;;
6517;SDS011;3292;48.944;9.240;2023-05-17T06:50:12;5.77;;;2.80;;
6517;SDS011;3292;48.944;9.240;2023-05-17T06:52:41;6.30;;;3.03;;
6517;SDS011;3292;48.944;9.240;2023-05-17T06:55:07;5.20;;;2.93;;
6517;SDS011;3292;48.944;9.240;2023-05-17T06:57:34;6.57;;;3.17;;
6517;SDS011;3292;48.944;9.240;2023-05-17T07:00:01;5.80;;;3.20;;
6517;SDS011;3292;48.944;9.240;2023-05-17T07:02:34;5.93;;;3.10;;
6517;SDS011;3292;48.944;9.240;2023-05-17T07:05:01;4.00;;;2.90;;
6517;SDS011;3292;48.944;9.240;2023-05-17T07:07:30;5.27;;;3.37;;
6517;SDS011;3292;48.944;9.240;2023-05-17T07:09:58;5.37;;;3.33;;
6517;SDS011;3292;48.944;9.240;2023-05-17T07:12:25;5.80;;;3.40;;
6517;SDS011;3292;48.944;9.240;2023-05-17T07:14:52;4.50;;;2.73;;
6517;SDS011;3292;48.944;9.240;2023-05-17T07:17:19;6.13;;;3.10;;
6517;SDS011;3292;48.944;9.240;2023-05-17T07:19:45;8.17;;;3.30;;
6517;SDS011;3292;48.944;9.240;2023-05-17T07:22:14;6.00;;;3.20;;
6517;SDS011;3292;48.944;9.240;2023-05-17T07:24:42;5.70;;;3.37;;
6517;SDS011;3292;48.944;9.240;2023-05-17T07:27:10;5.83;;;3.00;;
6517;SDS011;3292;48.944;9.240;2023-05-17T07:29:37;5.00;;;3.20;;
6517;SDS011;3292;48.944;9.240;2023-05-17T07:32:03;6.07;;;3.00;;
6517;SDS011;3292;48.944;9.240;2023-05-17T07:34:31;7.77;;;3.53;;
6517;SDS011;3292;48.944;9.240;2023-05-17T07:36:57;7.77;;;3.77;;
6517;SDS011;3292;48.944;9.240;2023-05-17T07:39:24;3.93;;;3.07;;
6517;SDS011;3292;48.944;9.240;2023-05-17T07:41:51;4.40;;;3.20;;
6517;SDS011;3292;48.944;9.240;2023-05-17T07:44:19;4.40;;;3.27;;
6517;SDS011;3292;48.944;9.240;2023-05-17T07:46:46;5.43;;;3.60;;
6517;SDS011;3292;48.944;9.240;2023-05-17T07:49:13;8.37;;;3.70;;
6517;SDS011;3292;48.944;9.240;2023-05-17T07:51:40;8.30;;;3.47;;
6517;SDS011;3292;48.944;9.240;2023-05-17T07:54:07;5.40;;;3.40;;
6517;SDS011;3292;48.944;9.240;2023-05-17T07:56:34;8.30;;;3.50;;
6517;SDS011;3292;48.944;9.240;2023-05-17T07:59:00;6.43;;;3.60;;
6517;SDS011;3292;48.944;9.240;2023-05-17T08:01:29;6.23;;;3.40;;
6517;SDS011;3292;48.944;9.240;2023-05-17T08:03:55;5.13;;;2.93;;
6517;SDS011;3292;48.944;9.240;2023-05-17T08:06:22;5.17;;;3.00;;
6517;SDS011;3292;48.944;9.240;2023-05-17T08:08:49;6.23;;;3.37;;
6517;SDS011;3292;48.944;9.240;2023-05-17T08:11:16;5.53;;;3.67;;
6517;SDS011;3292;48.944;9.240;2023-05-17T08:13:42;5.27;;;3.47;;
6517;SDS011;3292;48.944;9.240;2023-05-17T08:16:09;5.77;;;3.63;;
6517;SDS011;3292;48.944;9.240;2023-05-17T08:18:37;5.13;;;3.27;;
6517;SDS011;3292;48.944;9.240;2023-05-17T08:21:04;6.93;;;3.70;;
6517;SDS011;3292;48.944;9.240;2023-05-17T08:23:31;7.13;;;3.43;;
6517;SDS011;3292;48.944;9.240;2023-05-17T08:25:58;6.23;;;3.40;;
6517;SDS011;3292;48.944;9.240;2023-05-17T08:28:25;3.77;;;3.10;;
6517;SDS011;3292;48.944;9.240;2023-05-17T08:30:52;7.97;;;3.00;;
6517;SDS011;3292;48.944;9.240;2023-05-17T08:33:19;6.03;;;3.70;;
6517;SDS011;3292;48.944;9.240;2023-05-17T08:35:48;5.97;;;3.20;;
6517;SDS011;3292;48.944;9.240;2023-05-17T08:38:16;5.83;;;3.10;;
6517;SDS011;3292;48.944;9.240;2023-05-17T08:40:43;4.47;;;3.30;;
6517;SDS011;3292;48.944;9.240;2023-05-17T08:43:18;5.73;;;3.67;;
6517;SDS011;3292;48.944;9.240;2023-05-17T08:45:47;4.47;;;3.00;;
6517;SDS011;3292;48.944;9.240;2023-05-17T08:48:15;4.57;;;3.50;;
6517;SDS011;3292;48.944;9.240;2023-05-17T08:50:44;5.63;;;3.30;;
6517;SDS011;3292;48.944;9.240;2023-05-17T08:53:13;6.27;;;3.63;;
6517;SDS011;3292;48.944;9.240;2023-05-17T08:55:43;5.93;;;3.33;;
6517;SDS011;3292;48.944;9.240;2023-05-17T08:58:12;5.67;;;3.10;;
6517;SDS011;3292;48.944;9.240;2023-05-17T09:00:41;6.60;;;3.50;;
6517;SDS011;3292;48.944;9.240;2023-05-17T09:03:10;5.70;;;3.40;;
6517;SDS011;3292;48.944;9.240;2023-05-17T09:05:43;7.17;;;3.50;;
6517;SDS011;3292;48.944;9.240;2023-05-17T09:08:10;4.90;;;3.40;;
6517;SDS011;3292;48.944;9.240;2023-05-17T09:10:39;5.80;;;3.40;;
6517;SDS011;3292;48.944;9.240;2023-05-17T09:13:06;6.30;;;3.20;;
6517;SDS011;3292;48.944;9.240;2023-05-17T09:15:34;8.03;;;3.57;;
6517;SDS011;3292;48.944;9.240;2023-05-17T09:18:02;6.57;;;3.50;;
6517;SDS011;3292;48.944;9.240;2023-05-17T09:20:29;4.50;;;3.13;;
6517;SDS011;3292;48.944;9.240;2023-05-17T09:22:59;5.67;;;3.30;;
6517;SDS011;3292;48.944;9.240;2023-05-17T09:25:29;5.33;;;3.30;;
6517;SDS011;3292;48.944;9.240;2023-05-17T09:28:00;6.10;;;3.00;;
6517;SDS011;3292;48.944;9.240;2023-05-17T09:30:28;4.80;;;2.97;;
6517;SDS011;3292;48.944;9.240;2023-05-17T09:32:55;6.77;;;3.60;;
6517;SDS011;3292;48.944;9.240;2023-05-17T09:35:26;5.63;;;3.90;;
6517;SDS011;3292;48.944;9.240;2023-05-17T09:37:54;4.80;;;2.97;;
6517;SDS011;3292;48.944;9.240;2023-05-17T09:40:29;5.43;;;3.07;;
6517;SDS011;3292;48.944;9.240;2023-05-17T09:42:56;5.43;;;3.27;;
6517;SDS011;3292;48.944;9.240;2023-05-17T09:45:25;8.17;;;3.90;;
6517;SDS011;3292;48.944;9.240;2023-05-17T09:47:52;3.83;;;3.37;;
6517;SDS011;3292;48.944;9.240;2023-05-17T09:50:20;5.60;;;3.50;;
6517;SDS011;3292;48.944;9.240;2023-05-17T09:52:47;5.47;;;3.43;;
6517;SDS011;3292;48.944;9.240;2023-05-17T09:55:13;5.23;;;3.27;;
6517;SDS011;3292;48.944;9.240;2023-05-17T09:57:41;5.97;;;3.30;;
6517;SDS011;3292;48.944;9.240;2023-05-17T10:00:08;6.10;;;3.50;;
6517;SDS011;3292;48.944;9.240;2023-05-17T10:02:38;7.70;;;3.90;;
6517;SDS011;3292;48.944;9.240;2023-05-17T10:05:07;5.57;;;3.60;;
6517;SDS011;3292;48.944;9.240;2023-05-17T10:07:36;6.23;;;3.50;;
6517;SDS011;3292;48.944;9.240;2023-05-17T10:10:04;7.00;;;3.30;;
6517;SDS011;3292;48.944;9.240;2023-05-17T10:12:33;5.60;;;3.87;;
6517;SDS011;3292;48.944;9.240;2023-05-17T10:15:02;4.33;;;3.27;;
6517;SDS011;3292;48.944;9.240;2023-05-17T10:17:30;6.93;;;3.67;;
6517;SDS011;3292;48.944;9.240;2023-05-17T10:20:01;9.10;;;3.90;;
6517;SDS011;3292;48.944;9.240;2023-05-17T10:22:32;4.70;;;3.33;;
6517;SDS011;3292;48.944;9.240;2023-05-17T10:25:00;5.90;;;3.80;;
6517;SDS011;3292;48.944;9.240;2023-05-17T10:27:27;4.90;;;3.33;;
6517;SDS011;3292;48.944;9.240;2023-05-17T10:29:55;6.20;;;3.70;;
6517;SDS011;3292;48.944;9.240;2023-05-17T10:32:24;5.03;;;3.70;;
6517;SDS011;3292;48.944;9.240;2023-05-17T10:34:53;8.17;;;3.60;;
6517;SDS011;3292;48.944;9.240;2023-05-17T10:37:24;6.47;;;3.33;;
6517;SDS011;3292;48.944;9.240;2023-05-17T10:39:51;4.57;;;3.40;;
6517;SDS011;3292;48.944;9.240;2023-05-17T10:42:20;5.83;;;3.73;;
6517;SDS011;3292;48.944;9.240;2023-05-17T10:44:48;4.80;;;3.50;;
6517;SDS011;3292;48.944;9.240;2023-05-17T10:47:17;4.37;;;3.30;;
6517;SDS011;3292;48.944;9.240;2023-05-17T10:49:45;6.57;;;3.40;;
6517;SDS011;3292;48.944;9.240;2023-05-17T10:52:17;5.93;;;3.03;;
6517;SDS011;3292;48.944;9.240;2023-05-17T10:54:48;3.73;;;3.00;;
6517;SDS011;3292;48.944;9.240;2023-05-17T10:57:20;6.60;;;3.30;;
6517;SDS011;3292;48.944;9.240;2023-05-17T10:59:57;5.60;;;3.43;;
6517;SDS011;3292;48.944;9.240;2023-05-17T11:02:25;4.07;;;3.23;;
6517;SDS011;3292;48.944;9.240;2023-05-17T11:04:53;4.47;;;3.30;;
6517;SDS011;3292;48.944;9.240;2023-05-17T11:07:22;5.07;;;3.43;;
6517;SDS011;3292;48.944;9.240;2023-05-17T11:09:53;4.77;;;3.30;;
6517;SDS011;3292;48.944;9.240;2023-05-17T11:12:28;6.07;;;3.23;;
6517;SDS011;3292;48.944;9.240;2023-05-17T11:14:58;5.90;;;3.20;;
6517;SDS011;3292;48.944;9.240;2023-05-17T11:17:25;7.70;;;3.33;;
6517;SDS011;3292;48.944;9.240;2023-05-17T11:20:02;3.93;;;3.03;;
6517;SDS011;3292;48.944;9.240;2023-05-17T11:22:36;3.80;;;3.00;;
6517;SDS011;3292;48.944;9.240;2023-05-17T11:25:09;6.20;;;3.30;;
6517;SDS011;3292;48.944;9.240;2023-05-17T11:27:38;4.20;;;3.00;;
6517;SDS011;3292;48.944;9.240;2023-05-17T11:30:14;6.00;;;3.20;;
6517;SDS011;3292;48.944;9.240;2023-05-17T11:32:45;5.23;;;3.13;;
6517;SDS011;3292;48.944;9.240;2023-05-17T11:35:14;5.73;;;3.57;;
6517;SDS011;3292;48.944;9.240;2023-05-17T11:37:43;5.53;;;3.20;;
6517;SDS011;3292;48.944;9.240;2023-05-17T11:40:11;6.47;;;3.10;;
6517;SDS011;3292;48.944;9.240;2023-05-17T11:42:39;5.37;;;3.13;;
6517;SDS011;3292;48.944;9.240;2023-05-17T11:45:07;4.30;;;3.10;;
6517;SDS011;3292;48.944;9.240;2023-05-17T11:47:37;5.90;;;3.27;;
6517;SDS011;3292;48.944;9.240;2023-05-17T11:50:06;4.27;;;3.07;;
6517;SDS011;3292;48.944;9.240;2023-05-17T11:52:33;7.27;;;3.30;;
6517;SDS011;3292;48.944;9.240;2023-05-17T11:55:00;7.13;;;3.20;;
6517;SDS011;3292;48.944;9.240;2023-05-17T11:57:30;5.97;;;3.27;;
6517;SDS011;3292;48.944;9.240;2023-05-17T11:59:58;4.50;;;3.30;;
6517;SDS011;3292;48.944;9.240;2023-05-17T12:02:25;5.63;;;3.40;;
6517;SDS011;3292;48.944;9.240;2023-05-17T12:04:55;6.10;;;3.47;;
6517;SDS011;3292;48.944;9.240;2023-05-17T12:07:22;6.37;;;3.40;;
6517;SDS011;3292;48.944;9.240;2023-05-17T12:09:50;7.13;;;3.10;;
6517;SDS011;3292;48.944;9.240;2023-05-17T12:12:17;8.77;;;3.53;;
6517;SDS011;3292;48.944;9.240;2023-05-17T12:14:47;5.43;;;3.30;;
6517;SDS011;3292;48.944;9.240;2023-05-17T12:17:19;4.73;;;2.93;;
6517;SDS011;3292;48.944;9.240;2023-05-17T12:19:53;4.60;;;3.37;;
6517;SDS011;3292;48.944;9.240;2023-05-17T12:22:19;8.00;;;3.50;;
6517;SDS011;3292;48.944;9.240;2023-05-17T12:24:46;6.23;;;3.17;;
6517;SDS011;3292;48.944;9.240;2023-05-17T12:27:13;6.43;;;3.50;;
6517;SDS011;3292;48.944;9.240;2023-05-17T12:29:51;4.40;;;3.30;;
6517;SDS011;3292;48.944;9.240;2023-05-17T12:32:18;4.63;;;3.33;;
6517;SDS011;3292;48.944;9.240;2023-05-17T12:34:45;4.80;;;3.30;;
6517;SDS011;3292;48.944;9.240;2023-05-17T12:37:13;3.60;;;3.00;;
6517;SDS011;3292;48.944;9.240;2023-05-17T12:39:40;7.57;;;3.77;;
6517;SDS011;3292;48.944;9.240;2023-05-17T12:42:07;3.37;;;2.93;;
6517;SDS011;3292;48.944;9.240;2023-05-17T12:44:35;5.43;;;3.53;;
6517;SDS011;3292;48.944;9.240;2023-05-17T12:47:03;5.00;;;3.60;;
6517;SDS011;3292;48.944;9.240;2023-05-17T12:49:30;5.97;;;3.27;;
6517;SDS011;3292;48.944;9.240;2023-05-17T12:52:02;5.33;;;3.43;;
6517;SDS011;3292;48.944;9.240;2023-05-17T12:54:30;4.90;;;3.10;;
6517;SDS011;3292;48.944;9.240;2023-05-17T12:56:58;4.60;;;3.40;;
6517;SDS011;3292;48.944;9.240;2023-05-17T12:59:34;5.27;;;3.27;;
6517;SDS011;3292;48.944;9.240;2023-05-17T13:02:13;6.33;;;3.03;;
6517;SDS011;3292;48.944;9.240;2023-05-17T13:04:40;4.40;;;3.23;;
6517;SDS011;3292;48.944;9.240;2023-05-17T13:07:07;6.50;;;3.00;;
6517;SDS011;3292;48.944;9.240;2023-05-17T13:09:36;4.87;;;3.30;;
6517;SDS011;3292;48.944;9.240;2023-05-17T13:12:16;4.97;;;2.97;;
6517;SDS011;3292;48.944;9.240;2023-05-17T13:14:45;3.87;;;3.23;;
6517;SDS011;3292;48.944;9.240;2023-05-17T13:17:17;4.80;;;3.20;;
6517;SDS011;3292;48.944;9.240;2023-05-17T13:19:45;5.43;;;3.20;;
6517;SDS011;3292;48.944;9.240;2023-05-17T13:22:12;6.60;;;3.30;;
6517;SDS011;3292;48.944;9.240;2023-05-17T13:24:40;4.20;;;3.37;;
6517;SDS011;3292;48.944;9.240;2023-05-17T13:27:07;4.90;;;3.60;;
6517;SDS011;3292;48.944;9.240;2023-05-17T13:29:35;5.57;;;3.37;;
6517;SDS011;3292;48.944;9.240;2023-05-17T13:32:04;6.43;;;3.17;;
6517;SDS011;3292;48.944;9.240;2023-05-17T13:34:33;5.90;;;3.20;;
6517;SDS011;3292;48.944;9.240;2023-05-17T13:37:00;6.40;;;3.30;;
6517;SDS011;3292;48.944;9.240;2023-05-17T13:39:27;5.97;;;3.30;;
6517;SDS011;3292;48.944;9.240;2023-05-17T13:41:54;5.37;;;3.43;;
6517;SDS011;3292;48.944;9.240;2023-05-17T13:44:20;6.73;;;3.57;;
6517;SDS011;3292;48.944;9.240;2023-05-17T13:46:47;4.20;;;3.03;;
6517;SDS011;3292;48.944;9.240;2023-05-17T13:49:14;5.33;;;3.80;;
6517;SDS011;3292;48.944;9.240;2023-05-17T13:51:42;4.67;;;3.30;;
6517;SDS011;3292;48.944;9.240;2023-05-17T13:54:10;5.17;;;3.33;;
6517;SDS011;3292;48.944;9.240;2023-05-17T13:56:36;4.60;;;3.37;;
6517;SDS011;3292;48.944;9.240;2023-05-17T13:59:03;5.53;;;3.20;;
6517;SDS011;3292;48.944;9.240;2023-05-17T14:01:30;4.30;;;3.23;;
6517;SDS011;3292;48.944;9.240;2023-05-17T14:03:57;4.53;;;3.27;;
6517;SDS011;3292;48.944;9.240;2023-05-17T14:06:24;4.43;;;3.37;;
6517;SDS011;3292;48.944;9.240;2023-05-17T14:08:52;6.50;;;3.40;;
6517;SDS011;3292;48.944;9.240;2023-05-17T14:11:21;4.90;;;3.37;;
6517;SDS011;3292;48.944;9.240;2023-05-17T14:13:47;6.03;;;3.97;;
6517;SDS011;3292;48.944;9.240;2023-05-17T14:16:14;6.57;;;3.27;;
6517;SDS011;3292;48.944;9.240;2023-05-17T14:18:41;7.17;;;3.97;;
6517;SDS011;3292;48.944;9.240;2023-05-17T14:21:08;5.27;;;3.63;;
6517;SDS011;3292;48.944;9.240;2023-05-17T14:23:35;4.10;;;3.27;;
6517;SDS011;3292;48.944;9.240;2023-05-17T14:26:03;4.03;;;3.30;;
6517;SDS011;3292;48.944;9.240;2023-05-17T14:28:31;7.27;;;3.87;;
6517;SDS011;3292;48.944;9.240;2023-05-17T14:31:01;4.93;;;3.73;;
6517;SDS011;3292;48.944;9.240;2023-05-17T14:33:28;6.50;;;3.60;;
6517;SDS011;3292;48.944;9.240;2023-05-17T14:35:55;4.20;;;2.90;;
6517;SDS011;3292;48.944;9.240;2023-05-17T14:38:22;5.10;;;3.27;;
6517;SDS011;3292;48.944;9.240;2023-05-17T14:40:49;4.20;;;3.10;;
6517;SDS011;3292;48.944;9.240;2023-05-17T14:43:17;3.53;;;2.93;;
6517;SDS011;3292;48.944;9.240;2023-05-17T14:45:44;5.87;;;3.50;;
6517;SDS011;3292;48.944;9.240;2023-05-17T14:48:11;6.07;;;3.77;;
6517;SDS011;3292;48.944;9.240;2023-05-17T14:50:38;5.17;;;3.50;;
6517;SDS011;3292;48.944;9.240;2023-05-17T14:53:05;4.73;;;3.50;;
6517;SDS011;3292;48.944;9.240;2023-05-17T14:55:32;6.30;;;3.70;;
6517;SDS011;3292;48.944;9.240;2023-05-17T14:57:58;4.43;;;3.37;;
6517;SDS011;3292;48.944;9.240;2023-05-17T15:00:29;7.33;;;3.80;;
6517;SDS011;3292;48.944;9.240;2023-05-17T15:02:56;4.43;;;3.40;;
6517;SDS011;3292;48.944;9.240;2023-05-17T15:05:23;4.40;;;3.70;;
6517;SDS011;3292;48.944;9.240;2023-05-17T15:07:50;8.67;;;3.90;;
6517;SDS011;3292;48.944;9.240;2023-05-17T15:10:18;5.70;;;3.27;;
6517;SDS011;3292;48.944;9.240;2023-05-17T15:12:45;7.13;;;3.47;;
6517;SDS011;3292;48.944;9.240;2023-05-17T15:15:12;5.93;;;3.87;;
6517;SDS011;3292;48.944;9.240;2023-05-17T15:17:40;5.63;;;3.60;;
6517;SDS011;3292;48.944;9.240;2023-05-17T15:20:08;5.43;;;3.50;;
6517;SDS011;3292;48.944;9.240;2023-05-17T15:22:35;4.57;;;3.80;;